| time (UTC) | temp C | wind direction | speed KPH | gust KPH | rain 1hr cm | rain 24hr cm | rain mn cm | humidity % | barometer mb |
| 20260507123550 | 13 | 20 | 1.6 | 8.0 | 0.71 | 0.79 | 0.71 | 88 | 1014.1 |
| 20260507123057 | 13 | 19 | 1.6 | 4.8 | 0.69 | 0.76 | 0.69 | 87 | 1014.1 |
| 20260507122548 | 13 | 88 | 0.0 | 4.8 | 0.64 | 0.71 | 0.64 | 86 | 1014.1 |
| 20260507122052 | 13 | 60 | 1.6 | 4.8 | 0.56 | 0.64 | 0.56 | 85 | 1014.0 |
| 20260507121557 | 13 | 0 | 1.6 | 4.8 | 0.46 | 0.53 | 0.46 | 85 | 1014.2 |
| 20260507121053 | 13 | 35 | 0.0 | 6.4 | 0.36 | 0.43 | 0.36 | 85 | 1014.2 |
| 20260507120549 | 13 | 46 | 1.6 | 6.4 | 0.28 | 0.36 | 0.28 | 84 | 1014.1 |
| 20260507120056 | 13 | 79 | 1.6 | 6.4 | 0.13 | 0.20 | 0.13 | 82 | 1014.1 |
| 20260507115551 | 13 | 85 | 0.0 | 6.4 | 0.08 | 0.18 | 0.08 | 81 | 1014.1 |
| 20260507115049 | 13 | 26 | 0.0 | 20.9 | 0.08 | 0.15 | 0.08 | 77 | 1013.9 |
| 20260507114552 | 15 | 38 | 9.7 | 20.9 | 0.00 | 0.08 | 0.00 | 72 | 1014.2 |
| 20260507114048 | 15 | 318 | 3.2 | 14.5 | 0.00 | 0.08 | 0.00 | 75 | 1014.1 |
| 20260507113549 | 15 | 64 | 4.8 | 14.5 | 0.00 | 0.08 | 0.00 | 75 | 1014.0 |
| 20260507113051 | 15 | 133 | 6.4 | 12.9 | 0.00 | 0.08 | 0.00 | 74 | 1013.9 |
| 20260507112551 | 16 | 261 | 4.8 | 17.7 | 0.00 | 0.08 | 0.00 | 74 | 1014.1 |
| 20260507112050 | 15 | 72 | 6.4 | 17.7 | 0.00 | 0.08 | 0.00 | 74 | 1014.1 |
| 20260507111555 | 16 | 328 | 6.4 | 17.7 | 0.00 | 0.08 | 0.00 | 72 | 1014.2 |
| 20260507111049 | 16 | 294 | 6.4 | 16.1 | 0.00 | 0.08 | 0.00 | 69 | 1014.1 |
| 20260507110548 | 16 | 209 | 3.2 | 9.7 | 0.00 | 0.08 | 0.00 | 70 | 1014.2 |
| 20260507110052 | 16 | 180 | 3.2 | 19.3 | 0.00 | 0.08 | 0.00 | 69 | 1014.3 |
| 20260507105548 | 16 | 300 | 4.8 | 19.3 | 0.00 | 0.08 | 0.00 | 72 | 1014.3 |
| 20260507105048 | 16 | 290 | 6.4 | 12.9 | 0.00 | 0.08 | 0.00 | 73 | 1014.3 |
| 20260507104554 | 16 | 284 | 4.8 | 14.5 | 0.00 | 0.08 | 0.00 | 70 | 1014.3 |
| 20260507104047 | 16 | 327 | 4.8 | 16.1 | 0.00 | 0.08 | 0.00 | 73 | 1014.6 |
| 20260507103548 | 15 | 296 | 8.0 | 16.1 | 0.00 | 0.08 | 0.00 | 75 | 1014.7 |
| 20260507103053 | 15 | 308 | 8.0 | 16.1 | 0.00 | 0.08 | 0.00 | 74 | 1014.6 |
| 20260507102548 | 15 | 177 | 8.0 | 17.7 | 0.00 | 0.08 | 0.00 | 75 | 1014.5 |
| 20260507102049 | 15 | 292 | 9.7 | 17.7 | 0.00 | 0.08 | 0.00 | 75 | 1014.6 |
| 20260507101552 | 15 | 303 | 8.0 | 17.7 | 0.00 | 0.08 | 0.00 | 74 | 1014.6 |
| 20260507101048 | 15 | 318 | 4.8 | 14.5 | 0.00 | 0.08 | 0.00 | 75 | 1014.7 |
| 20260507100549 | 15 | 284 | 4.8 | 16.1 | 0.00 | 0.08 | 0.00 | 75 | 1014.7 |
| 20260507100057 | 15 | 309 | 6.4 | 19.3 | 0.00 | 0.08 | 0.00 | 76 | 1014.9 |
| 20260507095549 | 15 | 311 | 8.0 | 19.3 | 0.00 | 0.08 | 0.00 | 77 | 1014.7 |
| 20260507095049 | 15 | 305 | 9.7 | 17.7 | 0.00 | 0.08 | 0.00 | 76 | 1014.9 |
| 20260507094554 | 15 | 318 | 8.0 | 19.3 | 0.00 | 0.08 | 0.00 | 75 | 1014.9 |
| 20260507094049 | 15 | 327 | 6.4 | 20.9 | 0.00 | 0.08 | 0.00 | 75 | 1014.8 |
| 20260507093549 | 15 | 292 | 11.3 | 20.9 | 0.00 | 0.08 | 0.00 | 75 | 1014.9 |
| 20260507093241 | 15 | 308 | 6.4 | 14.5 | 0.00 | 0.08 | 0.00 | 76 | 1014.9 |
| 20260507091554 | 14 | 310 | 11.3 | 17.7 | 0.00 | 0.08 | 0.00 | 77 | 1014.6 |
| 20260507091051 | 14 | 299 | 9.7 | 17.7 | 0.00 | 0.08 | 0.00 | 79 | 1014.8 |
| 20260507091037 | 14 | 285 | 8.0 | 19.3 | 0.00 | 0.08 | 0.00 | 79 | 1014.6 |
| 20260507085553 | 14 | 334 | 9.7 | 19.3 | 0.00 | 0.08 | 0.00 | 78 | 1014.7 |
| 20260507085050 | 14 | 324 | 6.4 | 19.3 | 0.00 | 0.08 | 0.00 | 79 | 1014.8 |
| 20260507084555 | 13 | 360 | 3.2 | 14.5 | 0.00 | 0.08 | 0.00 | 80 | 1014.7 |
| 20260507084049 | 13 | 320 | 4.8 | 16.1 | 0.00 | 0.08 | 0.00 | 79 | 1014.8 |
| 20260507083550 | 13 | 19 | 6.4 | 16.1 | 0.00 | 0.08 | 0.00 | 82 | 1014.7 |
| 20260507083056 | 13 | 293 | 8.0 | 16.1 | 0.00 | 0.08 | 0.00 | 80 | 1014.6 |
| 20260507082552 | 13 | 4 | 4.8 | 16.1 | 0.00 | 0.08 | 0.00 | 81 | 1014.7 |
| 20260507082051 | 13 | 337 | 6.4 | 19.3 | 0.00 | 0.08 | 0.00 | 81 | 1014.6 |
| 20260507081552 | 13 | 301 | 8.0 | 19.3 | 0.00 | 0.08 | 0.00 | 83 | 1014.6 |
| 20260507081326 | 13 | 278 | 3.2 | 17.7 | 0.00 | 0.08 | 0.00 | 81 | 1014.7 |
| 20260507075551 | 12 | 296 | 9.7 | 19.3 | 0.00 | 0.08 | 0.00 | 84 | 1014.6 |
| 20260507075052 | 12 | 300 | 9.7 | 19.3 | 0.00 | 0.08 | 0.00 | 85 | 1014.7 |
| 20260507074601 | 12 | 327 | 8.0 | 16.1 | 0.00 | 0.08 | 0.00 | 85 | 1014.6 |
| 20260507074049 | 12 | 309 | 9.7 | 16.1 | 0.00 | 0.08 | 0.00 | 86 | 1014.9 |
| 20260507073549 | 12 | 310 | 4.8 | 12.9 | 0.00 | 0.08 | 0.00 | 86 | 1014.9 |
| 20260507073118 | 12 | 317 | 6.4 | 12.9 | 0.00 | 0.08 | 0.00 | 87 | 1014.8 |
| 20260507072548 | 11 | 157 | 4.8 | 12.9 | 0.00 | 0.08 | 0.00 | 88 | 1014.9 |
| 20260507072049 | 11 | 58 | 3.2 | 9.7 | 0.00 | 0.08 | 0.00 | 87 | 1014.8 |
| 20260507071603 | 11 | 329 | 3.2 | 9.7 | 0.00 | 0.08 | 0.00 | 87 | 1014.7 |
| 20260507071051 | 11 | 126 | 3.2 | 11.3 | 0.00 | 0.08 | 0.00 | 87 | 1014.6 |
| 20260507070548 | 11 | 202 | 4.8 | 11.3 | 0.00 | 0.08 | 0.00 | 87 | 1014.7 |
| 20260507070054 | 11 | 12 | 4.8 | 12.9 | 0.00 | 0.08 | 0.00 | 87 | 1014.6 |
| 20260507065548 | 11 | 275 | 3.2 | 12.9 | 0.00 | 0.08 | 0.00 | 87 | 1014.5 |
| 20260507065048 | 11 | 55 | 3.2 | 12.9 | 0.00 | 0.08 | 0.00 | 87 | 1014.3 |
| 20260507064557 | 11 | 286 | 4.8 | 9.7 | 0.00 | 0.08 | 0.00 | 88 | 1014.4 |
| 20260507064051 | 11 | 16 | 3.2 | 14.5 | 0.00 | 0.08 | 0.00 | 88 | 1014.6 |
| 20260507063550 | 11 | 322 | 8.0 | 14.5 | 0.00 | 0.08 | 0.00 | 88 | 1014.2 |
| 20260507063058 | 11 | 335 | 4.8 | 9.7 | 0.00 | 0.08 | 0.00 | 88 | 1014.2 |
| 20260507062549 | 11 | 278 | 4.8 | 9.7 | 0.00 | 0.08 | 0.00 | 88 | 1014.2 |
| 20260507062049 | 11 | 354 | 1.6 | 8.0 | 0.00 | 0.08 | 0.00 | 88 | 1014.3 |
| 20260507061558 | 11 | 90 | 3.2 | 8.0 | 0.00 | 0.08 | 0.00 | 88 | 1014.2 |
| 20260507061049 | 11 | 327 | 1.6 | 11.3 | 0.00 | 0.08 | 0.00 | 88 | 1014.2 |
| 20260507060552 | 11 | 124 | 4.8 | 12.9 | 0.00 | 0.08 | 0.00 | 88 | 1014.2 |
| 20260507055550 | 11 | 13 | 6.4 | 11.3 | 0.00 | 0.08 | 0.00 | 88 | 1014.2 |
| 20260507055049 | 11 | 32 | 3.2 | 9.7 | 0.00 | 0.08 | 0.00 | 88 | 1014.2 |
| 20260507054605 | 11 | 317 | 3.2 | 9.7 | 0.00 | 0.08 | 0.00 | 88 | 1014.0 |
| 20260507054048 | 11 | 280 | 0.0 | 6.4 | 0.00 | 0.08 | 0.00 | 88 | 1013.9 |
| 20260507053549 | 11 | 197 | 1.6 | 9.7 | 0.00 | 0.08 | 0.00 | 89 | 1014.1 |
| 20260507053059 | 11 | 266 | 3.2 | 9.7 | 0.00 | 0.08 | 0.00 | 89 | 1014.0 |
| 20260507052552 | 11 | 351 | 3.2 | 8.0 | 0.00 | 0.08 | 0.00 | 89 | 1013.8 |
| 20260507052048 | 11 | 214 | 1.6 | 6.4 | 0.00 | 0.08 | 0.00 | 89 | 1013.9 |
| 20260507051601 | 11 | 112 | 1.6 | 6.4 | 0.00 | 0.08 | 0.00 | 89 | 1013.7 |
| 20260507051048 | 11 | 359 | 3.2 | 6.4 | 0.00 | 0.08 | 0.00 | 89 | 1013.8 |
| 20260507050548 | 11 | 52 | 3.2 | 6.4 | 0.00 | 0.08 | 0.00 | 89 | 1013.7 |
| 20260507045549 | 11 | 186 | 1.6 | 8.0 | 0.00 | 0.08 | 0.00 | 89 | 1013.8 |
| 20260507045049 | 11 | 25 | 3.2 | 6.4 | 0.00 | 0.08 | 0.00 | 89 | 1013.7 |
| 20260507044600 | 11 | 287 | 3.2 | 6.4 | 0.00 | 0.08 | 0.00 | 90 | 1013.8 |
| 20260507044052 | 11 | 316 | 3.2 | 6.4 | 0.00 | 0.08 | 0.00 | 90 | 1013.7 |
| 20260507043551 | 11 | 290 | 3.2 | 9.7 | 0.00 | 0.08 | 0.00 | 90 | 1013.9 |
| 20260507043052 | 11 | 23 | 1.6 | 9.7 | 0.00 | 0.08 | 0.00 | 90 | 1013.7 |
| 20260507042551 | 11 | 40 | 4.8 | 9.7 | 0.00 | 0.08 | 0.00 | 90 | 1013.6 |
| 20260507042048 | 11 | 305 | 3.2 | 11.3 | 0.00 | 0.08 | 0.00 | 90 | 1013.8 |
| 20260507041559 | 11 | 294 | 6.4 | 11.3 | 0.00 | 0.08 | 0.00 | 91 | 1013.7 |
| 20260507041052 | 11 | 320 | 3.2 | 9.7 | 0.00 | 0.08 | 0.00 | 91 | 1013.8 |
| 20260507040550 | 10 | 325 | 1.6 | 9.7 | 0.00 | 0.08 | 0.00 | 91 | 1013.6 |
| 20260507040105 | 10 | 97 | 3.2 | 9.7 | 0.00 | 0.08 | 0.00 | 92 | 1013.6 |
| 20260507035551 | 10 | 357 | 3.2 | 8.0 | 0.00 | 0.08 | 0.00 | 92 | 1013.4 |
| 20260507035051 | 10 | 46 | 1.6 | 3.2 | 0.00 | 0.08 | 0.00 | 92 | 1013.5 |
| 20260507034558 | 10 | 0 | 0.0 | 4.8 | 0.00 | 0.08 | 0.00 | 92 | 1013.5 |
| 20260507034049 | 10 | 41 | 1.6 | 4.8 | 0.00 | 0.08 | 0.00 | 92 | 1013.5 |
| 20260507033549 | 10 | 60 | 1.6 | 3.2 | 0.00 | 0.08 | 0.00 | 92 | 1013.5 |
| 20260507033057 | 10 | 93 | 0.0 | 1.6 | 0.00 | 0.08 | 0.00 | 92 | 1013.4 |
| 20260507032549 | 10 | 0 | 0.0 | 1.6 | 0.00 | 0.08 | 0.00 | 92 | 1013.5 |
| 20260507032051 | 11 | 0 | 0.0 | 4.8 | 0.00 | 0.08 | 0.00 | 92 | 1013.4 |
| 20260507031550 | 11 | 0 | 0.0 | 6.4 | 0.00 | 0.08 | 0.00 | 92 | 1013.5 |
| 20260507031052 | 11 | 55 | 1.6 | 6.4 | 0.00 | 0.08 | 0.00 | 91 | 1013.4 |
| 20260507030550 | 11 | 48 | 1.6 | 6.4 | 0.00 | 0.08 | 0.00 | 91 | 1013.4 |
| 20260507030423 | 11 | 57 | 1.6 | 6.4 | 0.00 | 0.08 | 0.00 | 91 | 1013.4 |
| 20260507025550 | 11 | 51 | 3.2 | 4.8 | 0.00 | 0.08 | 0.00 | 91 | 1013.5 |
| 20260507025050 | 11 | 88 | 0.0 | 9.7 | 0.00 | 0.08 | 0.00 | 91 | 1013.4 |
| 20260507024553 | 11 | 170 | 1.6 | 11.3 | 0.00 | 0.08 | 0.00 | 91 | 1013.5 |
| 20260507024048 | 11 | 348 | 1.6 | 11.3 | 0.00 | 0.08 | 0.00 | 91 | 1013.5 |
| 20260507023554 | 11 | 290 | 4.8 | 12.9 | 0.00 | 0.08 | 0.00 | 91 | 1013.6 |
| 20260507023052 | 11 | 315 | 4.8 | 12.9 | 0.00 | 0.08 | 0.00 | 91 | 1013.7 |
| 20260507022549 | 11 | 43 | 1.6 | 12.9 | 0.00 | 0.08 | 0.00 | 91 | 1013.7 |
| 20260507022049 | 11 | 164 | 3.2 | 12.9 | 0.00 | 0.08 | 0.00 | 91 | 1013.6 |
| 20260507021552 | 11 | 47 | 3.2 | 6.4 | 0.00 | 0.08 | 0.00 | 91 | 1013.7 |
| 20260507021048 | 11 | 271 | 1.6 | 6.4 | 0.00 | 0.08 | 0.00 | 91 | 1013.7 |
| 20260507020549 | 11 | 183 | 0.0 | 6.4 | 0.00 | 0.08 | 0.00 | 91 | 1013.8 |
| 20260507015548 | 11 | 137 | 1.6 | 4.8 | 0.00 | 0.08 | 0.00 | 91 | 1013.9 |
| 20260507015048 | 11 | 86 | 0.0 | 8.0 | 0.00 | 0.08 | 0.00 | 91 | 1013.9 |
| 20260507014602 | 11 | 138 | 0.0 | 8.0 | 0.00 | 0.08 | 0.00 | 91 | 1014.0 |
| 20260507014050 | 11 | 0 | 3.2 | 8.0 | 0.00 | 0.08 | 0.00 | 91 | 1014.1 |
| 20260507013550 | 11 | 19 | 1.6 | 6.4 | 0.00 | 0.08 | 0.00 | 91 | 1014.1 |
| 20260507013050 | 11 | 79 | 0.0 | 9.7 | 0.00 | 0.08 | 0.00 | 91 | 1014.1 |
| 20260507012550 | 11 | 100 | 3.2 | 9.7 | 0.00 | 0.08 | 0.00 | 91 | 1014.1 |
| 20260507012224 | 11 | 294 | 1.6 | 6.4 | 0.00 | 0.08 | 0.00 | 91 | 1013.9 |
| 20260507005551 | 11 | 34 | 3.2 | 9.7 | 0.00 | 0.08 | 0.00 | 91 | 1014.2 |
| 20260507005055 | 11 | 16 | 4.8 | 9.7 | 0.00 | 0.08 | 0.00 | 91 | 1014.1 |
| 20260507004556 | 11 | 323 | 1.6 | 8.0 | 0.00 | 0.08 | 0.00 | 92 | 1014.1 |
| 20260507004048 | 11 | 251 | 1.6 | 8.0 | 0.00 | 0.08 | 0.00 | 92 | 1014.2 |
| 20260507003552 | 11 | 50 | 1.6 | 4.8 | 0.00 | 0.08 | 0.00 | 92 | 1014.3 |
| 20260507003056 | 11 | 133 | 1.6 | 6.4 | 0.00 | 0.08 | 0.00 | 91 | 1014.2 |
| 20260507002548 | 11 | 351 | 0.0 | 6.4 | 0.00 | 0.08 | 0.00 | 91 | 1014.3 |
| 20260507002051 | 11 | 240 | 1.6 | 4.8 | 0.00 | 0.08 | 0.00 | 91 | 1014.3 |
| 20260507001613 | 11 | 205 | 1.6 | 6.4 | 0.00 | 0.08 | 0.00 | 91 | 1014.4 |
| 20260507001051 | 11 | 303 | 1.6 | 6.4 | 0.00 | 0.08 | 0.00 | 91 | 1014.4 |
| 20260507000551 | 11 | 299 | 3.2 | 8.0 | 0.00 | 0.08 | 0.00 | 91 | 1014.5 |
| 20260507000059 | 11 | 351 | 3.2 | 9.7 | 0.00 | 0.08 | 0.00 | 90 | 1014.7 |
| 20260506235549 | 11 | 305 | 4.8 | 9.7 | 0.00 | 0.08 | 0.00 | 91 | 1014.5 |
| 20260506235052 | 12 | 271 | 3.2 | 8.0 | 0.00 | 0.08 | 0.00 | 91 | 1014.6 |
| 20260506234602 | 12 | 341 | 0.0 | 4.8 | 0.00 | 0.08 | 0.00 | 91 | 1014.7 |
| 20260506234048 | 12 | 295 | 1.6 | 4.8 | 0.00 | 0.08 | 0.00 | 91 | 1014.6 |
| 20260506233652 | 12 | 287 | 0.0 | 6.4 | 0.00 | 0.08 | 0.00 | 91 | 1014.7 |
| 20260506232048 | 12 | 4 | 1.6 | 6.4 | 0.00 | 0.08 | 0.00 | 91 | 1014.7 |
| 20260506231558 | 12 | 205 | 1.6 | 3.2 | 0.00 | 0.08 | 0.00 | 91 | 1014.8 |
| 20260506231048 | 12 | 0 | 0.0 | 3.2 | 0.00 | 0.08 | 0.00 | 90 | 1014.7 |
| 20260506230550 | 12 | 0 | 0.0 | 3.2 | 0.00 | 0.08 | 0.00 | 90 | 1014.8 |
| 20260506230058 | 12 | 343 | 0.0 | 4.8 | 0.00 | 0.08 | 0.00 | 90 | 1014.6 |
| 20260506225550 | 12 | 0 | 1.6 | 4.8 | 0.00 | 0.08 | 0.00 | 90 | 1014.6 |
| 20260506225048 | 12 | 278 | 0.0 | 4.8 | 0.00 | 0.08 | 0.00 | 90 | 1014.7 |
| 20260506224552 | 12 | 29 | 1.6 | 6.4 | 0.00 | 0.08 | 0.00 | 90 | 1014.9 |
| 20260506224048 | 12 | 12 | 1.6 | 6.4 | 0.00 | 0.08 | 0.00 | 89 | 1015.0 |
| 20260506223551 | 12 | 34 | 1.6 | 6.4 | 0.00 | 0.08 | 0.00 | 89 | 1014.9 |
| 20260506223055 | 12 | 25 | 1.6 | 4.8 | 0.00 | 0.08 | 0.00 | 89 | 1015.1 |
| 20260506222549 | 12 | 41 | 0.0 | 4.8 | 0.00 | 0.08 | 0.00 | 89 | 1014.9 |
| 20260506222052 | 12 | 75 | 0.0 | 6.4 | 0.00 | 0.08 | 0.00 | 89 | 1014.9 |
| 20260506221602 | 12 | 74 | 1.6 | 9.7 | 0.00 | 0.08 | 0.00 | 88 | 1014.9 |
| 20260506221049 | 12 | 152 | 1.6 | 9.7 | 0.00 | 0.08 | 0.00 | 88 | 1014.8 |
| 20260506220549 | 12 | 270 | 4.8 | 8.0 | 0.00 | 0.08 | 0.00 | 87 | 1014.7 |
| 20260506220107 | 12 | 332 | 3.2 | 8.0 | 0.00 | 0.08 | 0.00 | 87 | 1014.9 |
| 20260506215548 | 12 | 36 | 1.6 | 8.0 | 0.00 | 0.08 | 0.08 | 86 | 1014.9 |
| 20260506215049 | 12 | 100 | 1.6 | 8.0 | 0.00 | 0.08 | 0.08 | 86 | 1014.9 |
| 20260506214557 | 12 | 78 | 0.0 | 6.4 | 0.00 | 0.08 | 0.08 | 86 | 1014.9 |
| 20260506214049 | 12 | 43 | 0.0 | 3.2 | 0.00 | 0.08 | 0.08 | 86 | 1014.8 |
| 20260506213550 | 12 | 162 | 0.0 | 3.2 | 0.00 | 0.08 | 0.08 | 86 | 1014.7 |
| 20260506213106 | 12 | 0 | 0.0 | 1.6 | 0.00 | 0.08 | 0.08 | 86 | 1014.9 |
| 20260506212549 | 12 | 0 | 0.0 | 4.8 | 0.00 | 0.08 | 0.08 | 86 | 1015.1 |
| 20260506212052 | 12 | 69 | 0.0 | 8.0 | 0.00 | 0.08 | 0.08 | 86 | 1015.1 |
| 20260506211557 | 12 | 61 | 0.0 | 8.0 | 0.00 | 0.08 | 0.08 | 86 | 1014.9 |
| 20260506211049 | 12 | 86 | 1.6 | 8.0 | 0.00 | 0.08 | 0.08 | 86 | 1014.9 |
| 20260506210551 | 12 | 69 | 1.6 | 4.8 | 0.00 | 0.08 | 0.08 | 86 | 1014.7 |
| 20260506210100 | 12 | 54 | 0.0 | 3.2 | 0.00 | 0.08 | 0.08 | 86 | 1014.6 |
| 20260506205549 | 12 | 0 | 0.0 | 3.2 | 0.00 | 0.08 | 0.08 | 86 | 1014.7 |
| 20260506205051 | 12 | 71 | 1.6 | 4.8 | 0.00 | 0.08 | 0.08 | 85 | 1014.6 |
| 20260506204555 | 12 | 0 | 0.0 | 6.4 | 0.00 | 0.08 | 0.08 | 85 | 1014.6 |
| 20260506204051 | 12 | 87 | 0.0 | 6.4 | 0.00 | 0.08 | 0.08 | 85 | 1014.4 |
| 20260506203549 | 12 | 29 | 3.2 | 6.4 | 0.00 | 0.08 | 0.08 | 85 | 1014.1 |
| 20260506203139 | 12 | 69 | 0.0 | 6.4 | 0.00 | 0.08 | 0.08 | 85 | 1014.1 |
| 20260506202552 | 12 | 69 | 1.6 | 6.4 | 0.00 | 0.08 | 0.08 | 84 | 1014.2 |
| 20260506202049 | 12 | 80 | 0.0 | 4.8 | 0.00 | 0.08 | 0.08 | 85 | 1014.3 |
| 20260506201653 | 12 | 0 | 0.0 | 4.8 | 0.00 | 0.08 | 0.08 | 84 | 1014.3 |
| 20260506200056 | 13 | 82 | 1.6 | 4.8 | 0.00 | 0.08 | 0.08 | 85 | 1013.8 |
| 20260506195548 | 12 | 36 | 1.6 | 4.8 | 0.00 | 0.08 | 0.08 | 85 | 1013.8 |
| 20260506195049 | 13 | 87 | 1.6 | 4.8 | 0.00 | 0.08 | 0.08 | 86 | 1013.9 |
| 20260506194555 | 13 | 61 | 0.0 | 4.8 | 0.00 | 0.08 | 0.08 | 86 | 1013.7 |
| 20260506194050 | 13 | 0 | 1.6 | 4.8 | 0.00 | 0.08 | 0.08 | 87 | 1013.7 |
| 20260506193552 | 13 | 69 | 1.6 | 4.8 | 0.00 | 0.08 | 0.08 | 87 | 1013.6 |
| 20260506193056 | 13 | 64 | 1.6 | 3.2 | 0.00 | 0.08 | 0.08 | 88 | 1013.4 |
| 20260506192549 | 13 | 127 | 0.0 | 3.2 | 0.00 | 0.08 | 0.08 | 88 | 1013.5 |
| 20260506192051 | 13 | 0 | 0.0 | 4.8 | 0.00 | 0.08 | 0.08 | 88 | 1013.4 |
| 20260506191559 | 13 | 103 | 1.6 | 4.8 | 0.00 | 0.08 | 0.08 | 88 | 1013.3 |
| 20260506191052 | 13 | 0 | 0.0 | 3.2 | 0.00 | 0.08 | 0.08 | 88 | 1013.4 |
| 20260506190549 | 13 | 317 | 0.0 | 6.4 | 0.00 | 0.08 | 0.08 | 88 | 1013.3 |
| 20260506190056 | 13 | 313 | 1.6 | 6.4 | 0.00 | 0.08 | 0.08 | 87 | 1013.4 |
| 20260506185552 | 13 | 0 | 0.0 | 9.7 | 0.00 | 0.08 | 0.08 | 88 | 1013.4 |
| 20260506185049 | 13 | 285 | 4.8 | 9.7 | 0.00 | 0.08 | 0.08 | 87 | 1013.4 |
| 20260506184601 | 13 | 299 | 3.2 | 6.4 | 0.00 | 0.08 | 0.08 | 87 | 1013.3 |
| 20260506184052 | 13 | 150 | 1.6 | 4.8 | 0.00 | 0.08 | 0.08 | 87 | 1013.3 |
| 20260506183549 | 13 | 244 | 0.0 | 4.8 | 0.00 | 0.08 | 0.08 | 87 | 1013.1 |
| 20260506183101 | 13 | 154 | 0.0 | 4.8 | 0.00 | 0.08 | 0.08 | 86 | 1013.0 |
| 20260506182548 | 13 | 81 | 0.0 | 4.8 | 0.00 | 0.08 | 0.08 | 86 | 1013.0 |
| 20260506182048 | 13 | 22 | 1.6 | 4.8 | 0.00 | 0.08 | 0.08 | 85 | 1013.1 |
| 20260506181600 | 13 | 38 | 3.2 | 6.4 | 0.00 | 0.08 | 0.08 | 85 | 1013.0 |
| 20260506181049 | 13 | 48 | 1.6 | 6.4 | 0.00 | 0.08 | 0.08 | 84 | 1013.1 |
| 20260506180552 | 13 | 0 | 0.0 | 8.0 | 0.00 | 0.08 | 0.08 | 84 | 1012.8 |
| 20260506180054 | 13 | 308 | 3.2 | 9.7 | 0.00 | 0.08 | 0.08 | 83 | 1013.0 |
| 20260506175548 | 13 | 314 | 4.8 | 12.9 | 0.00 | 0.08 | 0.08 | 83 | 1012.8 |
| 20260506175052 | 13 | 287 | 4.8 | 12.9 | 0.00 | 0.08 | 0.08 | 83 | 1012.8 |
| 20260506174605 | 13 | 293 | 6.4 | 12.9 | 0.00 | 0.08 | 0.08 | 83 | 1012.9 |
| 20260506174052 | 13 | 323 | 4.8 | 9.7 | 0.00 | 0.08 | 0.08 | 84 | 1013.0 |
| 20260506173549 | 13 | 309 | 3.2 | 14.5 | 0.00 | 0.08 | 0.08 | 83 | 1012.9 |
| 20260506173057 | 13 | 142 | 4.8 | 14.5 | 0.00 | 0.08 | 0.08 | 83 | 1012.9 |
| 20260506172551 | 13 | 304 | 6.4 | 14.5 | 0.03 | 0.08 | 0.08 | 82 | 1013.0 |
| 20260506172048 | 13 | 292 | 3.2 | 17.7 | 0.05 | 0.08 | 0.08 | 83 | 1012.9 |
| 20260506171611 | 13 | 327 | 3.2 | 17.7 | 0.08 | 0.08 | 0.08 | 86 | 1012.9 |
| 20260506171052 | 13 | 339 | 8.0 | 17.7 | 0.08 | 0.08 | 0.08 | 85 | 1013.1 |
| 20260506170553 | 13 | 288 | 8.0 | 24.1 | 0.08 | 0.08 | 0.08 | 85 | 1012.7 |
| 20260506170104 | 13 | 301 | 11.3 | 24.1 | 0.08 | 0.08 | 0.08 | 85 | 1012.9 |
| 20260506170037 | 13 | 289 | 12.9 | 24.1 | 0.08 | 0.08 | 0.08 | 86 | 1012.9 |
| 20260506165049 | 13 | 297 | 8.0 | 17.7 | 0.08 | 0.08 | 0.08 | 86 | 1012.9 |
| 20260506164559 | 13 | 62 | 6.4 | 17.7 | 0.08 | 0.08 | 0.08 | 86 | 1012.8 |
| 20260506164048 | 13 | 306 | 8.0 | 20.9 | 0.08 | 0.08 | 0.08 | 86 | 1012.8 |
| 20260506163548 | 13 | 313 | 11.3 | 20.9 | 0.05 | 0.05 | 0.05 | 86 | 1012.7 |
| 20260506163131 | 13 | 197 | 8.0 | 20.9 | 0.05 | 0.05 | 0.05 | 85 | 1013.0 |
| 20260506162548 | 13 | 285 | 9.7 | 22.5 | 0.03 | 0.03 | 0.03 | 84 | 1012.7 |
| 20260506162053 | 14 | 288 | 14.5 | 25.7 | 0.00 | 0.00 | 0.00 | 81 | 1012.7 |
| 20260506161552 | 14 | 306 | 14.5 | 25.7 | 0.00 | 0.00 | 0.00 | 80 | 1012.5 |
| 20260506161048 | 15 | 314 | 11.3 | 25.7 | 0.00 | 0.00 | 0.00 | 78 | 1012.6 |
| 20260506160548 | 15 | 302 | 11.3 | 22.5 | 0.00 | 0.00 | 0.00 | 76 | 1012.5 |
| 20260506160051 | 16 | 294 | 12.9 | 20.9 | 0.00 | 0.00 | 0.00 | 73 | 1012.4 |
| 20260506155849 | 16 | 296 | 12.9 | 20.9 | 0.00 | 0.00 | 0.00 | 70 | 1012.4 |
| 20260506155049 | 16 | 30 | 8.0 | 17.7 | 0.00 | 0.00 | 0.00 | 66 | 1012.4 |
| 20260506154558 | 17 | 200 | 4.8 | 16.1 | 0.00 | 0.00 | 0.00 | 64 | 1012.3 |
| 20260506154053 | 17 | 285 | 6.4 | 20.9 | 0.00 | 0.00 | 0.00 | 63 | 1012.5 |
| 20260506153549 | 17 | 15 | 12.9 | 20.9 | 0.00 | 0.00 | 0.00 | 60 | 1012.4 |
| 20260506153121 | 18 | 11 | 9.7 | 19.3 | 0.00 | 0.00 | 0.00 | 59 | 1012.3 |
| 20260506152555 | 18 | 321 | 11.3 | 19.3 | 0.00 | 0.00 | 0.00 | 57 | 1012.2 |
| 20260506152049 | 19 | 349 | 11.3 | 19.3 | 0.00 | 0.00 | 0.00 | 56 | 1012.2 |
| 20260506151555 | 20 | 8 | 4.8 | 17.7 | 0.00 | 0.00 | 0.00 | 55 | 1012.2 |
| 20260506151048 | 20 | 114 | 6.4 | 17.7 | 0.00 | 0.00 | 0.00 | 55 | 1012.2 |
| 20260506150548 | 20 | 98 | 4.8 | 12.9 | 0.00 | 0.00 | 0.00 | 54 | 1012.2 |
| 20260506150055 | 20 | 74 | 4.8 | 12.9 | 0.00 | 0.00 | 0.00 | 53 | 1012.2 |
| 20260506145551 | 20 | 56 | 3.2 | 11.3 | 0.00 | 0.00 | 0.00 | 56 | 1012.2 |
| 20260506145050 | 20 | 47 | 4.8 | 11.3 | 0.00 | 0.00 | 0.00 | 55 | 1012.1 |
| 20260506144555 | 19 | 60 | 1.6 | 14.5 | 0.00 | 0.00 | 0.00 | 57 | 1012.0 |
| 20260506144049 | 19 | 93 | 4.8 | 14.5 | 0.00 | 0.00 | 0.00 | 56 | 1012.3 |
| 20260506143550 | 19 | 131 | 4.8 | 16.1 | 0.00 | 0.00 | 0.00 | 58 | 1012.6 |
| 20260506143053 | 19 | 20 | 8.0 | 16.1 | 0.00 | 0.00 | 0.00 | 59 | 1012.4 |
| 20260506142549 | 18 | 57 | 9.7 | 16.1 | 0.00 | 0.00 | 0.00 | 61 | 1012.4 |
| 20260506142048 | 18 | 88 | 6.4 | 14.5 | 0.00 | 0.00 | 0.00 | 62 | 1012.6 |
| 20260506141554 | 18 | 17 | 6.4 | 14.5 | 0.00 | 0.00 | 0.00 | 61 | 1012.8 |
| 20260506141049 | 18 | 350 | 3.2 | 11.3 | 0.00 | 0.00 | 0.00 | 59 | 1012.9 |
| 20260506140551 | 19 | 19 | 3.2 | 8.0 | 0.00 | 0.00 | 0.00 | 57 | 1012.9 |
| 20260506140053 | 19 | 30 | 1.6 | 16.1 | 0.00 | 0.00 | 0.00 | 56 | 1012.6 |
| 20260506135548 | 19 | 41 | 4.8 | 16.1 | 0.00 | 0.00 | 0.00 | 53 | 1012.7 |
| 20260506135048 | 20 | 9 | 4.8 | 16.1 | 0.00 | 0.00 | 0.00 | 54 | 1012.6 |
| 20260506134600 | 19 | 336 | 1.6 | 11.3 | 0.00 | 0.00 | 0.00 | 53 | 1012.8 |
| 20260506134048 | 18 | 11 | 1.6 | 11.3 | 0.00 | 0.00 | 0.00 | 53 | 1012.7 |
| 20260506133547 | 18 | 34 | 4.8 | 11.3 | 0.00 | 0.00 | 0.00 | 55 | 1012.9 |
| 20260506133056 | 18 | 64 | 6.4 | 11.3 | 0.00 | 0.00 | 0.00 | 55 | 1013.0 |
| 20260506132550 | 18 | 36 | 6.4 | 11.3 | 0.00 | 0.00 | 0.00 | 56 | 1013.1 |
| 20260506132049 | 18 | 19 | 4.8 | 11.3 | 0.00 | 0.00 | 0.00 | 55 | 1013.1 |
| 20260506131601 | 18 | 351 | 3.2 | 11.3 | 0.00 | 0.00 | 0.00 | 53 | 1013.1 |
| 20260506131049 | 18 | 48 | 4.8 | 11.3 | 0.00 | 0.00 | 0.00 | 53 | 1013.2 |
| 20260506130550 | 18 | 81 | 4.8 | 9.7 | 0.00 | 0.00 | 0.00 | 54 | 1013.1 |
| 20260506130548 | 19 | 29 | 4.8 | 8.0 | 0.00 | 0.00 | 0.00 | 53 | 1013.0 |
| 20260506125151 | 20 | 29 | 3.2 | 8.0 | 0.00 | 0.00 | 0.00 | 52 | 1013.3 |